Prudhoe Bay, Alaska
Current Conditions -  °F | °C
As of 9:02 AM on Saturday 20 Dec 2014 (Local Time) from PASC Reporting Station
Light Snow Light Snow  
Wind Chill: -28°   Ceiling: 1700
Heat Index: -16°   Visibility: 1mi
Dew Point: -19°   Wind: 20mph
Humidity: 80%   Direction: 60°ENE
Pressure: 29.59"   Gusts: NA
Location:  70.28°N, 148.38°W
Report Text: PASC 201802Z 06017KT 1SM R05/6000VP6000FT -SN BLSN BR OVC017 M16/M19 A2959 RMK AO2 P0000 T11611189
Loading
Personal Weather Stations






























Interactive Weather Map New forecast layout! Learn more

10-Day Weather Forecast

Advertisements
Track Severe Weather on mobile